sensor_id;sensor_type;location;lat;lon;timestamp;pressure;altitude;pressure_sealevel;temperature;humidity
56182;BME280;51963;46.052;14.544;2023-02-26T00:01:33;96988.47;;;0.00;100.00
56182;BME280;51963;46.052;14.544;2023-02-26T00:04:03;96977.03;;;-0.07;100.00
56182;BME280;51963;46.052;14.544;2023-02-26T00:06:34;97009.25;;;0.00;100.00
56182;BME280;51963;46.052;14.544;2023-02-26T00:09:07;97036.34;;;-0.03;100.00
56182;BME280;51963;46.052;14.544;2023-02-26T00:11:33;97047.84;;;-0.05;100.00
56182;BME280;51963;46.052;14.544;2023-02-26T00:13:58;97046.22;;;-0.06;100.00
56182;BME280;51963;46.052;14.544;2023-02-26T00:16:31;97032.25;;;-0.05;100.00
56182;BME280;51963;46.052;14.544;2023-02-26T00:19:03;97035.16;;;-0.08;100.00
56182;BME280;51963;46.052;14.544;2023-02-26T00:21:33;97018.59;;;-0.07;100.00
56182;BME280;51963;46.052;14.544;2023-02-26T00:24:00;97016.97;;;-0.08;100.00
56182;BME280;51963;46.052;14.544;2023-02-26T00:26:28;97005.25;;;-0.12;100.00
56182;BME280;51963;46.052;14.544;2023-02-26T00:28:55;97002.72;;;-0.04;100.00
56182;BME280;51963;46.052;14.544;2023-02-26T00:31:22;97009.03;;;-0.07;100.00
56182;BME280;51963;46.052;14.544;2023-02-26T00:33:53;97031.47;;;-0.06;100.00
56182;BME280;51963;46.052;14.544;2023-02-26T00:36:21;97039.38;;;-0.07;100.00
56182;BME280;51963;46.052;14.544;2023-02-26T00:41:43;97040.34;;;-0.08;100.00
56182;BME280;51963;46.052;14.544;2023-02-26T00:44:09;97049.47;;;-0.04;100.00
56182;BME280;51963;46.052;14.544;2023-02-26T00:46:44;97039.03;;;-0.12;100.00
56182;BME280;51963;46.052;14.544;2023-02-26T00:49:17;97009.13;;;-0.17;100.00
56182;BME280;51963;46.052;14.544;2023-02-26T00:51:52;96990.63;;;-0.13;100.00
56182;BME280;51963;46.052;14.544;2023-02-26T00:54:22;96989.66;;;-0.12;100.00
56182;BME280;51963;46.052;14.544;2023-02-26T00:56:51;96999.44;;;-0.06;100.00
56182;BME280;51963;46.052;14.544;2023-02-26T00:59:18;97016.34;;;-0.02;100.00
56182;BME280;51963;46.052;14.544;2023-02-26T01:01:44;97009.19;;;-0.08;100.00
56182;BME280;51963;46.052;14.544;2023-02-26T01:04:13;97008.06;;;-0.06;100.00
56182;BME280;51963;46.052;14.544;2023-02-26T01:07:02;97008.88;;;-0.05;100.00
56182;BME280;51963;46.052;14.544;2023-02-26T01:09:33;97003.22;;;-0.01;100.00
56182;BME280;51963;46.052;14.544;2023-02-26T01:12:02;96995.78;;;0.05;100.00
56182;BME280;51963;46.052;14.544;2023-02-26T01:14:30;97008.63;;;0.06;100.00
56182;BME280;51963;46.052;14.544;2023-02-26T01:20:00;96989.97;;;0.11;100.00
56182;BME280;51963;46.052;14.544;2023-02-26T01:25:12;97010.97;;;0.18;100.00
56182;BME280;51963;46.052;14.544;2023-02-26T01:27:43;97003.97;;;0.18;100.00
56182;BME280;51963;46.052;14.544;2023-02-26T01:30:09;97004.44;;;0.13;100.00
56182;BME280;51963;46.052;14.544;2023-02-26T01:35:28;97000.88;;;0.14;100.00
56182;BME280;51963;46.052;14.544;2023-02-26T01:38:09;96993.22;;;0.13;100.00
56182;BME280;51963;46.052;14.544;2023-02-26T01:43:41;96980.09;;;0.14;100.00
56182;BME280;51963;46.052;14.544;2023-02-26T01:46:21;96991.81;;;0.19;100.00
56182;BME280;51963;46.052;14.544;2023-02-26T01:48:52;97006.91;;;0.23;100.00
56182;BME280;51963;46.052;14.544;2023-02-26T01:54:07;97012.00;;;0.33;100.00
56182;BME280;51963;46.052;14.544;2023-02-26T01:56:33;97003.06;;;0.36;100.00
56182;BME280;51963;46.052;14.544;2023-02-26T01:58:59;96997.06;;;0.35;100.00
56182;BME280;51963;46.052;14.544;2023-02-26T02:01:31;97013.81;;;0.41;100.00
56182;BME280;51963;46.052;14.544;2023-02-26T02:03:57;97026.50;;;0.44;100.00
56182;BME280;51963;46.052;14.544;2023-02-26T02:06:25;97011.22;;;0.41;100.00
56182;BME280;51963;46.052;14.544;2023-02-26T02:08:52;97012.03;;;0.41;100.00
56182;BME280;51963;46.052;14.544;2023-02-26T02:11:18;96998.94;;;0.60;100.00
56182;BME280;51963;46.052;14.544;2023-02-26T02:14:00;96999.47;;;0.80;100.00
56182;BME280;51963;46.052;14.544;2023-02-26T02:27:52;97037.59;;;0.54;100.00
56182;BME280;51963;46.052;14.544;2023-02-26T02:30:37;97028.50;;;0.58;100.00
56182;BME280;51963;46.052;14.544;2023-02-26T02:33:17;97014.38;;;0.61;100.00
56182;BME280;51963;46.052;14.544;2023-02-26T02:35:56;97015.00;;;0.47;100.00
56182;BME280;51963;46.052;14.544;2023-02-26T02:38:31;97023.38;;;0.32;100.00
56182;BME280;51963;46.052;14.544;2023-02-26T02:41:10;97003.66;;;0.56;100.00
56182;BME280;51963;46.052;14.544;2023-02-26T02:43:42;96998.69;;;0.36;100.00
56182;BME280;51963;46.052;14.544;2023-02-26T02:46:13;97027.94;;;0.30;100.00
56182;BME280;51963;46.052;14.544;2023-02-26T02:48:48;97000.72;;;0.16;100.00
56182;BME280;51963;46.052;14.544;2023-02-26T02:51:23;97010.25;;;0.42;100.00
56182;BME280;51963;46.052;14.544;2023-02-26T02:54:14;97019.19;;;0.39;100.00
56182;BME280;51963;46.052;14.544;2023-02-26T02:56:57;97014.94;;;0.30;100.00
56182;BME280;51963;46.052;14.544;2023-02-26T02:59:46;97005.19;;;0.32;100.00
56182;BME280;51963;46.052;14.544;2023-02-26T03:02:18;97002.56;;;0.24;100.00
56182;BME280;51963;46.052;14.544;2023-02-26T03:04:48;97029.41;;;0.41;100.00
56182;BME280;51963;46.052;14.544;2023-02-26T03:07:17;97047.75;;;0.31;100.00
56182;BME280;51963;46.052;14.544;2023-02-26T03:09:43;97048.72;;;0.30;100.00
56182;BME280;51963;46.052;14.544;2023-02-26T03:12:10;97062.03;;;0.27;100.00
56182;BME280;51963;46.052;14.544;2023-02-26T03:14:37;97072.88;;;0.49;100.00
56182;BME280;51963;46.052;14.544;2023-02-26T03:25:18;97054.97;;;0.46;100.00
56182;BME280;51963;46.052;14.544;2023-02-26T03:29:11;97057.25;;;0.49;100.00
56182;BME280;51963;46.052;14.544;2023-02-26T03:31:21;97055.59;;;0.39;100.00
56182;BME280;51963;46.052;14.544;2023-02-26T03:33:58;97061.72;;;0.30;100.00
56182;BME280;51963;46.052;14.544;2023-02-26T03:36:39;97071.50;;;0.36;100.00
56182;BME280;51963;46.052;14.544;2023-02-26T03:39:30;97077.19;;;0.40;100.00
56182;BME280;51963;46.052;14.544;2023-02-26T03:42:03;97072.34;;;0.45;100.00
56182;BME280;51963;46.052;14.544;2023-02-26T03:44:39;97062.03;;;0.27;100.00
56182;BME280;51963;46.052;14.544;2023-02-26T03:47:12;97054.81;;;0.12;100.00
56182;BME280;51963;46.052;14.544;2023-02-26T03:52:41;97076.97;;;0.25;100.00
56182;BME280;51963;46.052;14.544;2023-02-26T03:55:31;97064.59;;;0.19;100.00
56182;BME280;51963;46.052;14.544;2023-02-26T03:58:22;97080.19;;;0.19;100.00
56182;BME280;51963;46.052;14.544;2023-02-26T04:01:04;97078.84;;;0.14;100.00
56182;BME280;51963;46.052;14.544;2023-02-26T04:03:51;97064.28;;;0.22;100.00
56182;BME280;51963;46.052;14.544;2023-02-26T04:06:20;97054.03;;;0.20;100.00
56182;BME280;51963;46.052;14.544;2023-02-26T04:08:47;97072.22;;;0.20;100.00
56182;BME280;51963;46.052;14.544;2023-02-26T04:11:20;97079.66;;;0.15;100.00
56182;BME280;51963;46.052;14.544;2023-02-26T04:13:48;97079.88;;;0.22;100.00
56182;BME280;51963;46.052;14.544;2023-02-26T04:16:15;97080.97;;;0.19;100.00
56182;BME280;51963;46.052;14.544;2023-02-26T04:18:44;97093.53;;;0.24;100.00
56182;BME280;51963;46.052;14.544;2023-02-26T04:21:15;97103.72;;;0.17;100.00
56182;BME280;51963;46.052;14.544;2023-02-26T04:23:42;97094.81;;;0.20;100.00
56182;BME280;51963;46.052;14.544;2023-02-26T04:26:11;97088.94;;;0.18;100.00
56182;BME280;51963;46.052;14.544;2023-02-26T04:28:39;97094.44;;;0.14;100.00
56182;BME280;51963;46.052;14.544;2023-02-26T04:31:06;97098.81;;;0.14;100.00
56182;BME280;51963;46.052;14.544;2023-02-26T04:33:32;97102.09;;;0.16;100.00
56182;BME280;51963;46.052;14.544;2023-02-26T04:36:01;97092.66;;;0.15;100.00
56182;BME280;51963;46.052;14.544;2023-02-26T04:38:27;97105.97;;;0.12;100.00
56182;BME280;51963;46.052;14.544;2023-02-26T04:40:53;97114.38;;;0.06;100.00
56182;BME280;51963;46.052;14.544;2023-02-26T04:43:19;97121.34;;;0.05;100.00
56182;BME280;51963;46.052;14.544;2023-02-26T04:46:07;97120.31;;;-0.02;100.00
56182;BME280;51963;46.052;14.544;2023-02-26T04:48:34;97130.44;;;0.01;100.00
56182;BME280;51963;46.052;14.544;2023-02-26T04:51:00;97132.63;;;-0.04;100.00
56182;BME280;51963;46.052;14.544;2023-02-26T04:53:28;97136.19;;;-0.05;100.00
56182;BME280;51963;46.052;14.544;2023-02-26T04:55:55;97136.84;;;-0.03;100.00
56182;BME280;51963;46.052;14.544;2023-02-26T04:58:23;97117.34;;;-0.07;100.00
56182;BME280;51963;46.052;14.544;2023-02-26T05:00:50;97117.34;;;-0.07;100.00
56182;BME280;51963;46.052;14.544;2023-02-26T05:03:19;97119.28;;;-0.09;100.00
56182;BME280;51963;46.052;14.544;2023-02-26T05:05:46;97110.81;;;-0.11;100.00
56182;BME280;51963;46.052;14.544;2023-02-26T05:08:12;97085.84;;;-0.04;100.00
56182;BME280;51963;46.052;14.544;2023-02-26T05:10:38;97086.53;;;-0.02;100.00
56182;BME280;51963;46.052;14.544;2023-02-26T05:13:04;97101.44;;;-0.04;100.00
56182;BME280;51963;46.052;14.544;2023-02-26T05:15:30;97121.44;;;-0.05;100.00
56182;BME280;51963;46.052;14.544;2023-02-26T05:17:58;97128.63;;;0.02;100.00
56182;BME280;51963;46.052;14.544;2023-02-26T05:20:24;97134.00;;;0.00;100.00
56182;BME280;51963;46.052;14.544;2023-02-26T05:22:53;97146.28;;;-0.02;100.00
56182;BME280;51963;46.052;14.544;2023-02-26T05:25:21;97147.78;;;0.01;100.00
56182;BME280;51963;46.052;14.544;2023-02-26T05:27:47;97137.25;;;0.02;100.00
56182;BME280;51963;46.052;14.544;2023-02-26T05:30:14;97139.19;;;0.00;100.00
56182;BME280;51963;46.052;14.544;2023-02-26T05:32:46;97129.38;;;-0.06;100.00
56182;BME280;51963;46.052;14.544;2023-02-26T05:35:18;97135.41;;;-0.06;100.00
56182;BME280;51963;46.052;14.544;2023-02-26T05:37:43;97138.78;;;-0.05;100.00
56182;BME280;51963;46.052;14.544;2023-02-26T05:40:09;97123.59;;;0.00;100.00
56182;BME280;51963;46.052;14.544;2023-02-26T05:42:36;97126.03;;;0.02;100.00
56182;BME280;51963;46.052;14.544;2023-02-26T05:45:05;97125.91;;;0.03;100.00
56182;BME280;51963;46.052;14.544;2023-02-26T05:47:32;97129.00;;;0.07;100.00
56182;BME280;51963;46.052;14.544;2023-02-26T05:49:58;97142.16;;;0.05;100.00
56182;BME280;51963;46.052;14.544;2023-02-26T05:52:24;97136.03;;;0.14;100.00
56182;BME280;51963;46.052;14.544;2023-02-26T05:54:50;97134.22;;;0.33;100.00
56182;BME280;51963;46.052;14.544;2023-02-26T05:57:22;97149.44;;;0.54;100.00
56182;BME280;51963;46.052;14.544;2023-02-26T05:59:49;97142.50;;;0.63;100.00
56182;BME280;51963;46.052;14.544;2023-02-26T06:02:15;97141.50;;;0.56;100.00
56182;BME280;51963;46.052;14.544;2023-02-26T06:04:41;97147.06;;;0.61;100.00
56182;BME280;51963;46.052;14.544;2023-02-26T06:07:06;97174.03;;;0.60;100.00
56182;BME280;51963;46.052;14.544;2023-02-26T06:09:35;97186.38;;;0.58;100.00
56182;BME280;51963;46.052;14.544;2023-02-26T06:12:06;97190.75;;;0.57;100.00
56182;BME280;51963;46.052;14.544;2023-02-26T06:14:34;97177.44;;;0.61;100.00
56182;BME280;51963;46.052;14.544;2023-02-26T06:17:03;97173.16;;;0.51;100.00
56182;BME280;51963;46.052;14.544;2023-02-26T06:19:29;97189.63;;;0.60;100.00
56182;BME280;51963;46.052;14.544;2023-02-26T06:21:59;97199.78;;;0.71;100.00
56182;BME280;51963;46.052;14.544;2023-02-26T06:24:25;97179.72;;;0.64;100.00
56182;BME280;51963;46.052;14.544;2023-02-26T06:26:51;97200.84;;;0.61;100.00
56182;BME280;51963;46.052;14.544;2023-02-26T06:29:17;97204.59;;;0.58;100.00
56182;BME280;51963;46.052;14.544;2023-02-26T06:31:45;97201.97;;;0.58;100.00
56182;BME280;51963;46.052;14.544;2023-02-26T06:34:14;97197.44;;;0.60;100.00
56182;BME280;51963;46.052;14.544;2023-02-26T06:36:42;97212.63;;;0.73;100.00
56182;BME280;51963;46.052;14.544;2023-02-26T06:39:08;97199.75;;;0.63;100.00
56182;BME280;51963;46.052;14.544;2023-02-26T06:41:34;97186.06;;;0.61;100.00
56182;BME280;51963;46.052;14.544;2023-02-26T06:44:00;97160.72;;;0.63;100.00
56182;BME280;51963;46.052;14.544;2023-02-26T06:46:31;97164.28;;;0.62;100.00
56182;BME280;51963;46.052;14.544;2023-02-26T06:48:57;97187.69;;;0.62;100.00
56182;BME280;51963;46.052;14.544;2023-02-26T06:51:22;97182.31;;;0.64;100.00
56182;BME280;51963;46.052;14.544;2023-02-26T06:53:48;97175.41;;;0.72;100.00
56182;BME280;51963;46.052;14.544;2023-02-26T06:56:14;97173.56;;;0.65;100.00
56182;BME280;51963;46.052;14.544;2023-02-26T06:58:40;97207.13;;;0.76;100.00
56182;BME280;51963;46.052;14.544;2023-02-26T07:01:06;97200.81;;;0.79;100.00
56182;BME280;51963;46.052;14.544;2023-02-26T07:03:32;97203.75;;;0.84;100.00
56182;BME280;51963;46.052;14.544;2023-02-26T07:05:58;97183.59;;;0.86;100.00
56182;BME280;51963;46.052;14.544;2023-02-26T07:08:24;97203.75;;;0.84;100.00
56182;BME280;51963;46.052;14.544;2023-02-26T07:10:50;97229.47;;;0.87;100.00
56182;BME280;51963;46.052;14.544;2023-02-26T07:13:16;97238.59;;;0.91;100.00
56182;BME280;51963;46.052;14.544;2023-02-26T07:15:42;97225.53;;;0.83;100.00
56182;BME280;51963;46.052;14.544;2023-02-26T07:18:10;97225.06;;;0.87;100.00
56182;BME280;51963;46.052;14.544;2023-02-26T07:20:36;97226.91;;;0.95;100.00
56182;BME280;51963;46.052;14.544;2023-02-26T07:23:03;97222.41;;;1.06;100.00
56182;BME280;51963;46.052;14.544;2023-02-26T07:25:28;97219.78;;;0.97;100.00
56182;BME280;51963;46.052;14.544;2023-02-26T07:27:54;97242.88;;;1.00;100.00
56182;BME280;51963;46.052;14.544;2023-02-26T07:30:20;97257.72;;;1.08;100.00
56182;BME280;51963;46.052;14.544;2023-02-26T07:32:46;97252.81;;;1.05;100.00
56182;BME280;51963;46.052;14.544;2023-02-26T07:35:12;97223.22;;;1.06;100.00
56182;BME280;51963;46.052;14.544;2023-02-26T07:37:38;97221.75;;;1.04;100.00
56182;BME280;51963;46.052;14.544;2023-02-26T07:40:04;97240.31;;;1.09;100.00
56182;BME280;51963;46.052;14.544;2023-02-26T07:42:30;97256.59;;;1.11;100.00
56182;BME280;51963;46.052;14.544;2023-02-26T07:45:01;97253.34;;;1.09;100.00
56182;BME280;51963;46.052;14.544;2023-02-26T07:47:27;97258.22;;;1.12;100.00
56182;BME280;51963;46.052;14.544;2023-02-26T07:49:55;97255.97;;;1.17;100.00
56182;BME280;51963;46.052;14.544;2023-02-26T07:52:21;97260.09;;;1.28;100.00
56182;BME280;51963;46.052;14.544;2023-02-26T07:54:47;97258.69;;;1.42;100.00
56182;BME280;51963;46.052;14.544;2023-02-26T07:57:13;97260.63;;;1.40;100.00
56182;BME280;51963;46.052;14.544;2023-02-26T07:59:39;97258.06;;;1.48;100.00
56182;BME280;51963;46.052;14.544;2023-02-26T08:02:05;97278.69;;;1.41;100.00
56182;BME280;51963;46.052;14.544;2023-02-26T08:04:34;97267.59;;;1.31;100.00
56182;BME280;51963;46.052;14.544;2023-02-26T08:07:01;97280.53;;;1.49;100.00
56182;BME280;51963;46.052;14.544;2023-02-26T08:09:27;97270.47;;;1.54;100.00
56182;BME280;51963;46.052;14.544;2023-02-26T08:11:52;97277.31;;;1.55;100.00
56182;BME280;51963;46.052;14.544;2023-02-26T08:14:19;97278.28;;;1.54;100.00
56182;BME280;51963;46.052;14.544;2023-02-26T08:16:45;97276.03;;;1.59;100.00
56182;BME280;51963;46.052;14.544;2023-02-26T08:19:11;97280.59;;;1.66;100.00
56182;BME280;51963;46.052;14.544;2023-02-26T08:21:39;97290.06;;;1.75;100.00
56182;BME280;51963;46.052;14.544;2023-02-26T08:24:04;97300.31;;;1.68;100.00
56182;BME280;51963;46.052;14.544;2023-02-26T08:26:30;97306.16;;;1.70;100.00
56182;BME280;51963;46.052;14.544;2023-02-26T08:28:59;97307.19;;;1.86;100.00
56182;BME280;51963;46.052;14.544;2023-02-26T08:31:24;97305.88;;;1.82;100.00
56182;BME280;51963;46.052;14.544;2023-02-26T08:33:52;97302.00;;;1.86;100.00
56182;BME280;51963;46.052;14.544;2023-02-26T08:36:18;97304.44;;;1.87;100.00
56182;BME280;51963;46.052;14.544;2023-02-26T08:38:46;97310.16;;;1.91;100.00
56182;BME280;51963;46.052;14.544;2023-02-26T08:41:15;97306.19;;;1.79;100.00
56182;BME280;51963;46.052;14.544;2023-02-26T08:43:42;97316.31;;;1.82;100.00
56182;BME280;51963;46.052;14.544;2023-02-26T08:46:11;97316.44;;;1.72;100.00
56182;BME280;51963;46.052;14.544;2023-02-26T08:48:37;97311.88;;;1.66;100.00
56182;BME280;51963;46.052;14.544;2023-02-26T08:51:03;97313.19;;;1.70;100.00
56182;BME280;51963;46.052;14.544;2023-02-26T08:53:29;97320.03;;;1.71;100.00
56182;BME280;51963;46.052;14.544;2023-02-26T08:55:55;97317.75;;;1.68;100.00
56182;BME280;51963;46.052;14.544;2023-02-26T08:58:24;97320.09;;;1.53;100.00
56182;BME280;51963;46.052;14.544;2023-02-26T09:00:50;97333.31;;;1.51;100.00
56182;BME280;51963;46.052;14.544;2023-02-26T09:03:16;97316.84;;;1.51;100.00
56182;BME280;51963;46.052;14.544;2023-02-26T09:05:42;97325.78;;;1.48;100.00
56182;BME280;51963;46.052;14.544;2023-02-26T09:08:08;97331.97;;;1.47;100.00
56182;BME280;51963;46.052;14.544;2023-02-26T09:10:36;97352.88;;;1.55;100.00
56182;BME280;51963;46.052;14.544;2023-02-26T09:13:01;97335.06;;;1.51;100.00
56182;BME280;51963;46.052;14.544;2023-02-26T09:15:27;97328.66;;;1.37;100.00
56182;BME280;51963;46.052;14.544;2023-02-26T09:17:56;97324.63;;;1.42;100.00
56182;BME280;51963;46.052;14.544;2023-02-26T09:20:30;97325.75;;;1.40;100.00
56182;BME280;51963;46.052;14.544;2023-02-26T09:22:56;97321.22;;;1.42;100.00
56182;BME280;51963;46.052;14.544;2023-02-26T09:25:22;97338.47;;;1.43;100.00
56182;BME280;51963;46.052;14.544;2023-02-26T09:27:48;97343.63;;;1.35;100.00
56182;BME280;51963;46.052;14.544;2023-02-26T09:30:14;97348.75;;;1.53;100.00
56182;BME280;51963;46.052;14.544;2023-02-26T09:32:40;97349.19;;;1.40;100.00
56182;BME280;51963;46.052;14.544;2023-02-26T09:35:06;97353.69;;;1.29;100.00
56182;BME280;51963;46.052;14.544;2023-02-26T09:37:32;97356.97;;;1.31;100.00
56182;BME280;51963;46.052;14.544;2023-02-26T09:40:01;97355.50;;;1.37;100.00
56182;BME280;51963;46.052;14.544;2023-02-26T09:43:24;97357.00;;;1.40;100.00
56182;BME280;51963;46.052;14.544;2023-02-26T09:45:29;97363.50;;;1.36;100.00
56182;BME280;51963;46.052;14.544;2023-02-26T09:47:56;97356.53;;;1.44;100.00
56182;BME280;51963;46.052;14.544;2023-02-26T09:50:31;97359.81;;;1.46;100.00
56182;BME280;51963;46.052;14.544;2023-02-26T09:53:10;97364.00;;;1.39;100.00
56182;BME280;51963;46.052;14.544;2023-02-26T09:55:42;97365.13;;;1.37;100.00
56182;BME280;51963;46.052;14.544;2023-02-26T10:06:33;97383.16;;;1.56;100.00
56182;BME280;51963;46.052;14.544;2023-02-26T10:09:17;97382.09;;;1.41;100.00
56182;BME280;51963;46.052;14.544;2023-02-26T10:12:11;97361.44;;;1.48;100.00
56182;BME280;51963;46.052;14.544;2023-02-26T10:18:31;97380.72;;;1.28;100.00
56182;BME280;51963;46.052;14.544;2023-02-26T10:21:16;97379.66;;;1.48;100.00
56182;BME280;51963;46.052;14.544;2023-02-26T10:24:00;97385.09;;;1.54;100.00
56182;BME280;51963;46.052;14.544;2023-02-26T10:26:50;97388.63;;;1.45;100.00
56182;BME280;51963;46.052;14.544;2023-02-26T10:29:57;97360.31;;;1.50;100.00
56182;BME280;51963;46.052;14.544;2023-02-26T10:32:35;97381.16;;;1.50;100.00
56182;BME280;51963;46.052;14.544;2023-02-26T10:35:05;97376.03;;;1.67;100.00
56182;BME280;51963;46.052;14.544;2023-02-26T10:40:30;97369.22;;;1.74;100.00
56182;BME280;51963;46.052;14.544;2023-02-26T10:43:10;97375.13;;;1.84;100.00
56182;BME280;51963;46.052;14.544;2023-02-26T10:45:49;97383.25;;;1.73;100.00
56182;BME280;51963;46.052;14.544;2023-02-26T10:51:13;97398.66;;;2.01;100.00
56182;BME280;51963;46.052;14.544;2023-02-26T10:53:42;97394.88;;;1.95;100.00
56182;BME280;51963;46.052;14.544;2023-02-26T10:56:19;97404.84;;;2.00;100.00
56182;BME280;51963;46.052;14.544;2023-02-26T10:58:53;97387.22;;;1.94;100.00
56182;BME280;51963;46.052;14.544;2023-02-26T11:01:22;97396.25;;;2.16;100.00
56182;BME280;51963;46.052;14.544;2023-02-26T11:04:12;97385.19;;;2.14;100.00
56182;BME280;51963;46.052;14.544;2023-02-26T11:06:44;97386.00;;;2.14;100.00
56182;BME280;51963;46.052;14.544;2023-02-26T11:09:28;97388.28;;;2.17;100.00
56182;BME280;51963;46.052;14.544;2023-02-26T11:12:05;97380.66;;;2.32;100.00
56182;BME280;51963;46.052;14.544;2023-02-26T11:14:42;97379.19;;;2.22;100.00
56182;BME280;51963;46.052;14.544;2023-02-26T11:17:13;97382.13;;;2.27;100.00
56182;BME280;51963;46.052;14.544;2023-02-26T11:19:49;97389.34;;;2.41;100.00
56182;BME280;51963;46.052;14.544;2023-02-26T11:22:17;97401.56;;;2.49;100.00
56182;BME280;51963;46.052;14.544;2023-02-26T11:24:58;97422.28;;;2.42;100.00
56182;BME280;51963;46.052;14.544;2023-02-26T11:27:35;97427.63;;;2.41;100.00
56182;BME280;51963;46.052;14.544;2023-02-26T11:30:06;97416.72;;;2.37;100.00
56182;BME280;51963;46.052;14.544;2023-02-26T11:32:42;97418.66;;;2.27;100.00
56182;BME280;51963;46.052;14.544;2023-02-26T11:35:14;97421.94;;;2.37;100.00
56182;BME280;51963;46.052;14.544;2023-02-26T11:37:47;97428.13;;;2.36;100.00
56182;BME280;51963;46.052;14.544;2023-02-26T11:40:37;97419.13;;;2.30;100.00
56182;BME280;51963;46.052;14.544;2023-02-26T11:43:11;97420.97;;;2.38;100.00
56182;BME280;51963;46.052;14.544;2023-02-26T11:45:42;97409.88;;;2.36;100.00
56182;BME280;51963;46.052;14.544;2023-02-26T11:48:15;97420.97;;;2.38;100.00
56182;BME280;51963;46.052;14.544;2023-02-26T11:50:47;97409.22;;;2.34;100.00
56182;BME280;51963;46.052;14.544;2023-02-26T11:53:23;97415.09;;;2.44;99.33
56182;BME280;51963;46.052;14.544;2023-02-26T11:55:58;97421.91;;;2.29;100.00
56182;BME280;51963;46.052;14.544;2023-02-26T11:58:27;97435.38;;;2.59;100.00
56182;BME280;51963;46.052;14.544;2023-02-26T12:01:03;97432.13;;;2.65;100.00
56182;BME280;51963;46.052;14.544;2023-02-26T12:03:34;97431.75;;;2.52;100.00
56182;BME280;51963;46.052;14.544;2023-02-26T12:06:04;97429.50;;;2.65;100.00
56182;BME280;51963;46.052;14.544;2023-02-26T12:08:44;97435.69;;;2.64;100.00
56182;BME280;51963;46.052;14.544;2023-02-26T12:17:27;97433.13;;;2.89;97.70
56182;BME280;51963;46.052;14.544;2023-02-26T12:26:01;97439.84;;;2.91;87.82
56182;BME280;51963;46.052;14.544;2023-02-26T12:28:54;97431.78;;;2.68;85.52
56182;BME280;51963;46.052;14.544;2023-02-26T12:34:41;97447.75;;;2.57;83.90
56182;BME280;51963;46.052;14.544;2023-02-26T12:42:22;97435.69;;;2.64;87.47
56182;BME280;51963;46.052;14.544;2023-02-26T12:49:08;97447.13;;;2.63;84.91
56182;BME280;51963;46.052;14.544;2023-02-26T13:10:23;97479.53;;;2.52;79.50
56182;BME280;51963;46.052;14.544;2023-02-26T13:13:02;97487.22;;;2.54;85.81
56182;BME280;51963;46.052;14.544;2023-02-26T13:18:15;97471.91;;;2.59;85.92
56182;BME280;51963;46.052;14.544;2023-02-26T13:21:15;97494.69;;;2.48;87.02
56182;BME280;51963;46.052;14.544;2023-02-26T13:23:56;97487.00;;;2.47;87.67
56182;BME280;51963;46.052;14.544;2023-02-26T13:26:25;97484.94;;;2.59;86.08
56182;BME280;51963;46.052;14.544;2023-02-26T13:29:15;97485.84;;;2.33;85.95
56182;BME280;51963;46.052;14.544;2023-02-26T13:31:49;97448.31;;;2.26;86.06
56182;BME280;51963;46.052;14.544;2023-02-26T13:34:31;97480.03;;;2.47;84.05
56182;BME280;51963;46.052;14.544;2023-02-26T13:36:58;97473.34;;;2.61;84.88
56182;BME280;51963;46.052;14.544;2023-02-26T13:39:51;97469.41;;;2.49;85.10
56182;BME280;51963;46.052;14.544;2023-02-26T13:45:24;97484.28;;;2.57;85.43
56182;BME280;51963;46.052;14.544;2023-02-26T13:55:40;97488.84;;;2.55;82.98
56182;BME280;51963;46.052;14.544;2023-02-26T13:58:42;97486.16;;;2.73;83.28
56182;BME280;51963;46.052;14.544;2023-02-26T14:01:16;97495.59;;;2.66;82.80
56182;BME280;51963;46.052;14.544;2023-02-26T14:06:24;97500.69;;;2.84;81.21
56182;BME280;51963;46.052;14.544;2023-02-26T14:08:54;97500.97;;;2.72;80.75
56182;BME280;51963;46.052;14.544;2023-02-26T14:11:42;97506.81;;;2.66;81.57
56182;BME280;51963;46.052;14.544;2023-02-26T14:14:24;97491.59;;;2.53;82.08
56182;BME280;51963;46.052;14.544;2023-02-26T14:17:17;97505.44;;;2.45;81.25
56182;BME280;51963;46.052;14.544;2023-02-26T14:19:43;97502.00;;;2.45;83.27
56182;BME280;51963;46.052;14.544;2023-02-26T14:22:44;97499.00;;;2.66;82.88
56182;BME280;51963;46.052;14.544;2023-02-26T14:25:44;97497.66;;;2.54;83.27
56182;BME280;51963;46.052;14.544;2023-02-26T14:30:58;97507.72;;;2.40;83.26
56182;BME280;51963;46.052;14.544;2023-02-26T14:33:31;97490.22;;;2.32;82.11
56182;BME280;51963;46.052;14.544;2023-02-26T14:36:12;97510.97;;;2.42;82.66
56182;BME280;51963;46.052;14.544;2023-02-26T14:38:39;97516.25;;;2.59;83.23
56182;BME280;51963;46.052;14.544;2023-02-26T14:41:28;97513.63;;;2.51;84.44
56182;BME280;51963;46.052;14.544;2023-02-26T14:44:07;97487.16;;;2.37;84.91
56182;BME280;51963;46.052;14.544;2023-02-26T14:46:37;97523.16;;;2.33;84.80
56182;BME280;51963;46.052;14.544;2023-02-26T14:49:04;97520.28;;;2.45;85.92
56182;BME280;51963;46.052;14.544;2023-02-26T14:51:46;97513.94;;;2.47;82.42
56182;BME280;51963;46.052;14.544;2023-02-26T14:54:33;97511.47;;;2.46;83.36
56182;BME280;51963;46.052;14.544;2023-02-26T15:00:11;97520.78;;;2.48;82.90
56182;BME280;51963;46.052;14.544;2023-02-26T15:06:15;97524.88;;;2.51;83.84
56182;BME280;51963;46.052;14.544;2023-02-26T15:08:53;97532.56;;;2.53;85.61
56182;BME280;51963;46.052;14.544;2023-02-26T15:17:40;97516.63;;;2.29;85.26
56182;BME280;51963;46.052;14.544;2023-02-26T15:23:18;97545.16;;;2.31;84.43
56182;BME280;51963;46.052;14.544;2023-02-26T15:25:49;97523.63;;;2.29;85.00
56182;BME280;51963;46.052;14.544;2023-02-26T15:28:41;97547.44;;;2.26;85.50
56182;BME280;51963;46.052;14.544;2023-02-26T15:31:09;97547.22;;;2.19;86.11